createdAt,value
2022-10-17T00:04:25.275Z,12.93
2022-10-17T00:09:24.041Z,12.90
2022-10-17T00:14:22.797Z,12.86
2022-10-17T00:19:22.993Z,12.78
2022-10-17T00:24:21.780Z,12.50
2022-10-17T00:29:20.510Z,12.40
2022-10-17T00:34:20.003Z,12.33
2022-10-17T00:39:20.856Z,12.22
2022-10-17T00:44:57.051Z,12.04
2022-10-17T00:49:56.189Z,11.89
2022-10-17T00:55:03.936Z,11.91
2022-10-17T01:00:08.227Z,11.91
2022-10-17T01:05:08.234Z,11.78
2022-10-17T01:10:10.320Z,11.74
2022-10-17T01:15:15.391Z,11.72
2022-10-17T01:20:55.642Z,11.71
2022-10-17T01:26:06.162Z,11.63
2022-10-17T01:31:11.142Z,11.60
2022-10-17T01:36:13.986Z,11.64
2022-10-17T01:41:18.403Z,11.65
2022-10-17T01:46:24.534Z,11.71
2022-10-17T01:51:28.225Z,11.74
2022-10-17T01:56:31.482Z,11.74
2022-10-17T02:01:32.877Z,11.75
2022-10-17T02:06:36.275Z,11.70
2022-10-17T02:11:41.390Z,11.72
2022-10-17T02:16:49.462Z,11.73
2022-10-17T02:21:55.191Z,11.74
2022-10-17T02:27:03.291Z,11.74
2022-10-17T02:32:07.013Z,11.70
2022-10-17T02:37:08.372Z,11.67
2022-10-17T02:42:10.688Z,11.60
2022-10-17T02:47:20.125Z,11.55
2022-10-17T02:52:27.958Z,11.50
2022-10-17T02:57:32.234Z,11.42
2022-10-17T03:02:40.399Z,11.35
2022-10-17T03:07:41.117Z,11.29
2022-10-17T03:12:40.431Z,11.26
2022-10-17T03:17:42.339Z,11.22
2022-10-17T03:22:42.076Z,11.17
2022-10-17T03:27:42.173Z,11.10
2022-10-17T03:32:42.805Z,10.72
2022-10-17T03:37:41.720Z,10.52
2022-10-17T03:42:40.809Z,10.54
2022-10-17T03:47:40.117Z,10.58
2022-10-17T03:52:40.733Z,10.62
2022-10-17T03:57:45.401Z,10.64
2022-10-17T04:02:48.478Z,10.33
2022-10-17T04:07:54.241Z,10.20
2022-10-17T04:13:03.243Z,10.04
2022-10-17T04:18:02.537Z,9.98
2022-10-17T04:23:03.232Z,9.98
2022-10-17T04:28:02.059Z,9.98
2022-10-17T04:33:01.119Z,10.01
2022-10-17T04:38:02.680Z,9.99
2022-10-17T04:43:01.607Z,9.97
2022-10-17T04:48:07.136Z,10.02
2022-10-17T04:53:07.693Z,10.06
2022-10-17T04:58:06.972Z,10.10
2022-10-17T05:03:06.149Z,10.15
2022-10-17T05:08:05.316Z,10.14
2022-10-17T05:13:10.282Z,10.00
2022-10-17T05:18:09.204Z,9.88
2022-10-17T05:23:24.410Z,9.71
2022-10-17T05:28:45.274Z,9.44
2022-10-17T05:34:18.688Z,9.42
2022-10-17T05:39:19.831Z,9.44
2022-10-17T05:44:21.898Z,9.65
2022-10-17T05:49:33.845Z,9.85
2022-10-17T06:00:18.590Z,10.19
2022-10-17T06:05:25.900Z,10.25
2022-10-17T06:10:25.120Z,10.35
2022-10-17T06:15:26.739Z,10.44
2022-10-17T06:20:33.888Z,10.51
2022-10-17T06:25:34.216Z,10.62
2022-10-17T06:30:34.512Z,10.71
2022-10-17T06:35:33.577Z,10.71
2022-10-17T06:40:32.527Z,10.72
2022-10-17T06:45:32.138Z,10.65
2022-10-17T06:51:02.047Z,10.81
2022-10-17T06:56:03.178Z,10.93
2022-10-17T07:01:25.368Z,11.10
2022-10-17T07:06:29.784Z,11.27
2022-10-17T07:11:31.984Z,11.43
2022-10-17T07:16:33.212Z,11.64
2022-10-17T07:22:02.579Z,11.83
2022-10-17T07:27:03.141Z,12.01
2022-10-17T07:32:04.084Z,12.22
2022-10-17T07:37:07.008Z,12.31
2022-10-17T07:42:07.578Z,12.50
2022-10-17T07:47:07.163Z,12.69
2022-10-17T07:52:14.472Z,12.87
2022-10-17T07:57:13.423Z,13.06
2022-10-17T08:02:19.959Z,13.69
2022-10-17T08:07:25.395Z,13.83
2022-10-17T08:12:27.627Z,13.88
2022-10-17T08:17:27.285Z,13.98
2022-10-17T08:22:28.165Z,14.25
2022-10-17T08:27:30.484Z,14.52
2022-10-17T08:32:30.705Z,14.89
2022-10-17T08:37:32.791Z,15.55
2022-10-17T08:42:59.393Z,16.61
2022-10-17T08:48:00.777Z,17.41
2022-10-17T08:53:07.429Z,18.48
2022-10-17T08:58:14.618Z,19.76
2022-10-17T09:03:24.413Z,20.39
2022-10-17T09:08:33.652Z,21.40
2022-10-17T09:13:45.043Z,22.08
2022-10-17T09:18:47.732Z,22.59
2022-10-17T09:23:59.446Z,23.57
2022-10-17T09:29:18.618Z,24.48
2022-10-17T09:34:17.599Z,24.27
2022-10-17T09:39:20.848Z,24.79
2022-10-17T09:44:22.585Z,25.18
2022-10-17T09:49:28.535Z,25.82
2022-10-17T09:54:41.468Z,26.65
2022-10-17T09:59:42.046Z,26.75
2022-10-17T10:05:09.023Z,26.14
2022-10-17T10:10:27.660Z,27.03
2022-10-17T10:15:37.295Z,27.84
2022-10-17T10:20:38.038Z,28.48
2022-10-17T10:25:38.148Z,29.01
2022-10-17T10:30:53.717Z,29.10
2022-10-17T10:36:02.237Z,28.83
2022-10-17T10:41:10.075Z,28.93
2022-10-17T10:46:26.838Z,28.87
2022-10-17T10:51:31.493Z,29.74
2022-10-17T10:56:38.744Z,30.52
2022-10-17T11:01:48.656Z,31.63
2022-10-17T11:06:49.050Z,31.94
2022-10-17T11:11:55.909Z,31.83
2022-10-17T11:17:04.379Z,32.37
2022-10-17T11:22:12.975Z,32.95
2022-10-17T11:27:13.160Z,33.04
2022-10-17T11:32:16.984Z,32.41
2022-10-17T11:37:20.811Z,32.83
2022-10-17T11:42:27.533Z,32.43
2022-10-17T11:47:35.805Z,31.17
2022-10-17T11:52:56.977Z,31.96
2022-10-17T11:58:24.536Z,33.06
2022-10-17T12:03:36.031Z,33.02
2022-10-17T12:08:45.900Z,32.64
2022-10-17T12:13:52.078Z,33.05
2022-10-17T12:19:31.356Z,33.19
2022-10-17T12:24:44.870Z,33.29
2022-10-17T12:29:45.320Z,33.60
2022-10-17T12:34:53.218Z,34.27
2022-10-17T12:40:03.287Z,35.19
2022-10-17T12:45:46.358Z,36.08
2022-10-17T12:56:37.227Z,34.99
2022-10-17T13:01:41.157Z,35.06
2022-10-17T13:06:46.588Z,35.26
2022-10-17T13:11:45.616Z,35.10
2022-10-17T13:16:54.504Z,34.94
2022-10-17T13:21:56.333Z,35.08
2022-10-17T13:27:27.588Z,35.37
2022-10-17T13:32:47.902Z,34.97
2022-10-17T13:37:53.956Z,34.46
2022-10-17T13:43:01.732Z,34.79
2022-10-17T13:48:06.923Z,34.27
2022-10-17T13:53:15.880Z,34.48
2022-10-17T13:58:18.727Z,34.01
2022-10-17T14:03:20.422Z,34.01
2022-10-17T14:08:23.315Z,33.87
2022-10-17T14:13:25.936Z,34.03
2022-10-17T14:18:35.787Z,34.03
2022-10-17T14:23:39.118Z,33.94
2022-10-17T14:28:38.997Z,33.97
2022-10-17T14:33:44.061Z,34.39
2022-10-17T14:38:53.651Z,34.25
2022-10-17T14:44:05.004Z,34.08
2022-10-17T14:49:08.760Z,33.94
2022-10-17T14:54:21.993Z,33.73
2022-10-17T14:59:52.731Z,33.46
2022-10-17T15:04:44.466Z,33.02
2022-10-17T15:09:43.732Z,32.57
2022-10-17T15:14:43.406Z,32.05
2022-10-17T15:19:46.506Z,31.41
2022-10-17T15:24:46.309Z,30.74
2022-10-17T15:29:45.978Z,29.98
2022-10-17T15:34:46.709Z,29.20
2022-10-17T15:39:48.184Z,28.36
2022-10-17T15:44:50.064Z,27.60
2022-10-17T15:49:50.545Z,26.91
2022-10-17T15:54:49.580Z,26.23
2022-10-17T15:59:50.463Z,25.65
2022-10-17T16:04:57.953Z,25.03
2022-10-17T16:09:57.113Z,24.47
2022-10-17T16:14:57.858Z,23.98
2022-10-17T16:19:58.291Z,23.56
2022-10-17T16:24:59.370Z,23.13
2022-10-17T16:29:58.459Z,22.99
2022-10-17T16:35:03.056Z,23.09
2022-10-17T16:40:02.075Z,22.85
2022-10-17T16:45:01.083Z,22.43
2022-10-17T16:50:01.340Z,22.01
2022-10-17T16:55:04.458Z,21.63
2022-10-17T17:00:03.512Z,21.35
2022-10-17T17:05:03.721Z,21.04
2022-10-17T17:10:02.782Z,20.76
2022-10-17T17:15:01.693Z,20.46
2022-10-17T17:20:00.617Z,20.29
2022-10-17T17:25:01.036Z,20.13
2022-10-17T17:30:00.016Z,19.94
2022-10-17T17:34:58.952Z,19.78
2022-10-17T17:40:00.710Z,19.66
2022-10-17T17:44:59.535Z,19.51
2022-10-17T17:49:58.397Z,19.39
2022-10-17T17:54:57.281Z,19.31
2022-10-17T17:59:57.891Z,19.18
2022-10-17T18:04:56.755Z,18.95
2022-10-17T18:09:57.138Z,18.81
2022-10-17T18:15:01.133Z,18.67
2022-10-17T18:20:02.747Z,18.51
2022-10-17T18:25:02.179Z,18.36
2022-10-17T18:30:14.832Z,18.20
2022-10-17T18:35:13.942Z,18.05
2022-10-17T18:40:13.639Z,17.90
2022-10-17T18:45:14.390Z,17.78
2022-10-17T18:50:13.220Z,17.63
2022-10-17T18:55:12.039Z,17.55
2022-10-17T19:00:13.860Z,17.45
2022-10-17T19:05:12.813Z,17.35
2022-10-17T19:10:11.673Z,17.18
2022-10-17T19:15:10.934Z,17.05
2022-10-17T19:20:12.142Z,16.95
2022-10-17T19:25:11.301Z,16.87
2022-10-17T19:30:16.542Z,16.80
2022-10-17T19:35:19.525Z,16.71
2022-10-17T19:40:21.624Z,16.59
2022-10-17T19:45:29.027Z,16.48
2022-10-17T19:50:30.120Z,16.40
2022-10-17T19:55:29.198Z,16.30
2022-10-17T20:00:28.463Z,16.24
2022-10-17T20:05:28.253Z,16.09
2022-10-17T20:10:30.290Z,15.94
2022-10-17T20:15:29.305Z,15.88
2022-10-17T20:20:29.421Z,15.83
2022-10-17T20:25:29.724Z,15.77
2022-10-17T20:30:28.743Z,15.67
2022-10-17T20:35:27.601Z,15.55
2022-10-17T20:40:35.361Z,15.44
2022-10-17T20:45:51.582Z,15.28
2022-10-17T20:50:51.717Z,15.20
2022-10-17T20:56:03.213Z,15.13
2022-10-17T21:01:08.514Z,15.07
2022-10-17T21:06:10.257Z,15.02
2022-10-17T21:11:14.116Z,14.89
2022-10-17T21:16:17.322Z,14.76
2022-10-17T21:21:18.386Z,14.63
2022-10-17T21:26:18.658Z,14.57
2022-10-17T21:31:22.376Z,14.50
2022-10-17T21:36:24.182Z,14.37
2022-10-17T21:41:24.974Z,14.13
2022-10-17T21:46:26.073Z,14.03
2022-10-17T21:51:26.460Z,13.96
2022-10-17T21:56:28.310Z,13.91
2022-10-17T22:01:30.074Z,13.87
2022-10-17T22:06:40.106Z,13.54
2022-10-17T22:11:40.117Z,13.49
2022-10-17T22:16:41.217Z,13.43
2022-10-17T22:21:47.847Z,13.35
2022-10-17T22:26:47.449Z,13.36
2022-10-17T22:31:47.740Z,13.38
2022-10-17T22:36:47.883Z,13.36
2022-10-17T22:41:46.933Z,13.33
2022-10-17T22:46:47.123Z,13.27
2022-10-17T22:51:45.956Z,13.17
2022-10-17T22:56:45.483Z,13.09
2022-10-17T23:01:45.267Z,13.07
2022-10-17T23:06:46.593Z,13.02
2022-10-17T23:11:45.656Z,12.99
2022-10-17T23:16:44.488Z,12.86
2022-10-17T23:21:43.273Z,12.78
2022-10-17T23:26:47.640Z,12.72
2022-10-17T23:31:48.515Z,12.68
2022-10-17T23:36:50.541Z,12.63
2022-10-17T23:41:50.730Z,12.56
2022-10-17T23:46:49.565Z,12.54
2022-10-17T23:51:48.601Z,12.52
2022-10-17T23:56:47.447Z,12.50
